Pagrindinis puslapis
METAR-TAF:

METAR-TAF

Oro uostai :

Natalis, Rio Grande do Norte, Brazilija

platuma: 05-55S, ilguma: 035-15W, Aukštis: 52 m

Dabartinis oras

Ataskaita buvo paskelbta 1 valandą ir 42 minutes, ne 21:00 UTC
Vėjas 5 kt iš Rytų
Temperatūra 26°C
Drėgmė 84%
Slėgis 1013 hPa
Matomumas 10 km arba daugiau
Išsisklaidę debesys ne aukštis 1700 ft
Išsisklaidę debesys ne aukštis 2300 ft
Su prošvaistėmis ne aukštis 7000 ft

METAR: SBNT 302100Z 09005KT 9999 SCT017 SCT023 BKN070 26/23 Q1013

Laikas: 19:42 (22:42 UTC)

Prognozė

Ataskaita buvo paskelbta 7 valandos ir 42 minutes, ne 15:00 UTC
Prognozė galioja nuo 30 metu 18 UTC su 31 metu 06 UTC
Vėjas 10 kt iš Pietų/Pietryčių
Matomumas 10 km arba daugiau
Su prošvaistėmis ne aukštis 1700 ft
Mažai debesys ne aukštis 3000 ft, aukštai iškilę kamuoliniai debesys.
Liūtis kaimynystėje
Tapsmas
nuo 30 metu 20 UTC su 30 metu 22 UTC
Su prošvaistėmis ne aukštis 4000 ft

TAF: SBNT 301500Z 3018/3106 15010KT 9999 VCSH BKN017 FEW030TCU TX28/3018Z TN25/3106Z BECMG 3020/3022 NSW BKN040 RMK PDW

Orai ataskaitas ir orų prognozės (METAR, TAF).

turimą stotys yra geltonos ir raudonos taškus žemėlapyje.

Perkelti pele per norėdami pamatyti stoties vardą.

Tada spustelėkite, norėdami matyti oro stebėjimo ir prognozės.

Norėdami pakeisti žemėlapį: spustelėkite ant žalios mygtukų su juodo kryžiaus žemyn,; žalią mygtuką su brūkšneliu, jei norite nutolinti; arba žalių rodyklių gretimoms žemėlapius.


METAR-TAF: